createdAt,value
2022-12-28T00:01:13.732Z,99471.38
2022-12-28T00:03:15.361Z,99471.56
2022-12-28T00:05:17.942Z,99476.97
2022-12-28T00:07:19.488Z,99475.94
2022-12-28T00:09:27.529Z,99466.16
2022-12-28T00:11:31.044Z,99468.00
2022-12-28T00:13:34.013Z,99466.16
2022-12-28T00:15:37.266Z,99457.88
2022-12-28T00:17:38.712Z,99458.03
2022-12-28T00:19:40.282Z,99453.47
2022-12-28T00:21:42.828Z,99445.56
2022-12-28T00:23:44.743Z,99448.91
2022-12-28T00:25:46.266Z,99443.69
2022-12-28T00:27:47.783Z,99449.94
2022-12-28T00:29:49.403Z,99451.78
2022-12-28T00:31:51.061Z,99451.63
2022-12-28T00:33:52.670Z,99447.06
2022-12-28T00:35:55.488Z,99447.06
2022-12-28T00:37:56.944Z,99449.53
2022-12-28T00:39:58.893Z,99442.44
2022-12-28T00:42:00.413Z,99445.16
2022-12-28T00:44:01.793Z,99448.72
2022-12-28T00:46:06.215Z,99442.44
2022-12-28T00:48:09.088Z,99442.44
2022-12-28T00:50:12.598Z,99446.84
2022-12-28T00:52:14.197Z,99443.28
2022-12-28T00:54:15.816Z,99444.13
2022-12-28T00:56:19.939Z,99443.13
2022-12-28T00:58:22.622Z,99443.28
2022-12-28T01:00:24.153Z,99435.81
2022-12-28T01:02:25.702Z,99442.06
2022-12-28T01:04:27.126Z,99443.13
2022-12-28T01:06:29.143Z,99438.72
2022-12-28T01:08:32.118Z,99440.41
2022-12-28T01:10:33.587Z,99436.03
2022-12-28T01:12:38.355Z,99427.06
2022-12-28T01:14:40.067Z,99426.22
2022-12-28T01:16:41.607Z,99418.97
2022-12-28T01:18:44.427Z,99421.28
2022-12-28T01:20:45.939Z,99427.53
2022-12-28T01:22:47.511Z,99426.69
2022-12-28T01:24:49.019Z,99415.03
2022-12-28T01:26:50.591Z,99415.88
2022-12-28T01:28:52.341Z,99412.97
2022-12-28T01:30:53.926Z,99412.97
2022-12-28T01:32:55.440Z,99404.22
2022-12-28T01:34:56.928Z,99405.28
2022-12-28T01:36:58.359Z,99397.16
2022-12-28T01:39:03.609Z,99389.69
2022-12-28T01:41:11.130Z,99388.63
2022-12-28T01:43:15.449Z,99386.97
2022-12-28T01:45:31.505Z,99381.75
2022-12-28T01:47:35.601Z,99385.50
2022-12-28T01:49:44.897Z,99371.13
2022-12-28T01:51:53.787Z,99369.28
2022-12-28T01:53:59.324Z,99370.94
2022-12-28T01:56:00.986Z,99366.38
2022-12-28T01:58:08.833Z,99363.66
2022-12-28T02:00:13.228Z,99354.91
2022-12-28T02:02:15.804Z,99366.38
2022-12-28T02:04:17.994Z,99363.47
2022-12-28T02:06:20.232Z,99357.22
2022-12-28T02:08:37.154Z,99354.31
2022-12-28T02:10:45.476Z,99338.09
2022-12-28T02:12:47.654Z,99341.00
2022-12-28T02:14:49.267Z,99347.06
2022-12-28T02:16:52.241Z,99333.31
2022-12-28T02:18:54.713Z,99333.13
2022-12-28T02:21:06.648Z,99322.50
2022-12-28T02:23:26.717Z,99313.59
2022-12-28T02:25:52.122Z,99314.59
2022-12-28T02:28:09.640Z,99316.69
2022-12-28T02:30:14.081Z,99301.94
2022-12-28T02:32:52.804Z,99297.75
2022-12-28T02:35:08.624Z,99294.84
2022-12-28T02:37:19.444Z,99295.69
2022-12-28T02:39:24.775Z,99286.94
2022-12-28T02:41:26.480Z,99292.13
2022-12-28T02:43:28.786Z,99281.31
2022-12-28T02:46:00.820Z,99284.03
2022-12-28T02:48:20.900Z,99272.38
2022-12-28T02:50:30.854Z,99271.34
2022-12-28T02:52:54.160Z,99283.19
2022-12-28T02:55:59.955Z,99274.25
2022-12-28T02:58:33.400Z,99265.31
2022-12-28T03:00:55.189Z,99259.91
2022-12-28T03:03:10.131Z,99259.28
2022-12-28T03:05:42.445Z,99240.75
2022-12-28T03:08:17.671Z,99237.22
2022-12-28T03:10:32.533Z,99229.31
2022-12-28T03:12:43.497Z,99223.69
2022-12-28T03:14:49.170Z,99228.09
2022-12-28T03:17:13.283Z,99219.97
2022-12-28T03:19:34.024Z,99229.09
2022-12-28T03:21:56.174Z,99229.94
2022-12-28T03:24:18.363Z,99221.00
2022-12-28T03:26:41.807Z,99217.66
2022-12-28T03:29:04.235Z,99209.56
2022-12-28T03:31:15.088Z,99205.84
2022-12-28T03:33:22.127Z,99216.25
2022-12-28T03:35:39.731Z,99212.50
2022-12-28T03:37:52.884Z,99207.91
2022-12-28T03:40:10.271Z,99209.38
2022-12-28T03:42:54.253Z,99211.06
2022-12-28T03:45:03.116Z,99202.28
2022-12-28T03:47:11.490Z,99196.06
2022-12-28T03:49:13.661Z,99188.78
2022-12-28T03:51:20.410Z,99186.72
2022-12-28T03:53:28.933Z,99195.88
2022-12-28T03:55:32.534Z,99192.75
2022-12-28T03:57:36.026Z,99194.63
2022-12-28T03:59:40.186Z,99193.59
2022-12-28T04:01:42.715Z,99195.06
2022-12-28T04:03:44.560Z,99170.06
2022-12-28T04:05:46.104Z,99175.47
2022-12-28T04:07:48.751Z,99163.63
2022-12-28T04:09:50.539Z,99164.25
2022-12-28T04:11:52.040Z,99155.13
2022-12-28T04:14:10.119Z,99163.00
2022-12-28T04:16:16.106Z,99155.97
2022-12-28T04:18:18.614Z,99147.00
2022-12-28T04:20:20.271Z,99154.28
2022-12-28T04:22:24.087Z,99148.88
2022-12-28T04:24:25.775Z,99138.06
2022-12-28T04:26:28.168Z,99153.44
2022-12-28T04:28:31.541Z,99158.84
2022-12-28T04:30:52.779Z,99155.13
2022-12-28T04:32:55.344Z,99156.78
2022-12-28T04:34:57.431Z,99155.13
2022-12-28T04:36:58.911Z,99155.13
2022-12-28T04:39:01.847Z,99148.66
2022-12-28T04:41:04.975Z,99145.94
2022-12-28T04:43:06.613Z,99151.19
2022-12-28T04:45:08.703Z,99141.19
2022-12-28T04:47:10.332Z,99145.53
2022-12-28T04:49:11.887Z,99149.94
2022-12-28T04:51:17.844Z,99139.13
2022-12-28T04:53:19.595Z,99141.41
2022-12-28T04:55:32.116Z,99143.47
2022-12-28T04:57:34.917Z,99140.56
2022-12-28T04:59:36.416Z,99150.16
2022-12-28T05:01:38.203Z,99157.22
2022-12-28T05:03:41.536Z,99143.50
2022-12-28T05:05:43.063Z,99136.00
2022-12-28T05:07:44.565Z,99143.91
2022-12-28T05:09:45.951Z,99138.50
2022-12-28T05:11:47.469Z,99134.75
2022-12-28T05:13:49.652Z,99136.44
2022-12-28T05:15:51.255Z,99136.22
2022-12-28T05:17:54.818Z,99136.03
2022-12-28T05:19:56.382Z,99127.50
2022-12-28T05:21:58.006Z,99124.81
2022-12-28T05:23:59.886Z,99129.38
2022-12-28T05:26:01.498Z,99126.47
2022-12-28T05:28:03.140Z,99129.81
2022-12-28T05:30:05.113Z,99125.84
2022-12-28T05:32:06.850Z,99121.91
2022-12-28T05:34:08.411Z,99116.25
2022-12-28T05:36:18.507Z,99113.38
2022-12-28T05:38:20.024Z,99114.81
2022-12-28T05:40:21.746Z,99119.41
2022-12-28T05:42:23.284Z,99116.28
2022-12-28T05:44:24.752Z,99113.34
2022-12-28T05:46:30.138Z,99113.16
2022-12-28T05:48:34.238Z,99114.81
2022-12-28T05:50:35.869Z,99122.75
2022-12-28T05:52:38.761Z,99112.72
2022-12-28T05:54:40.435Z,99116.09
2022-12-28T05:56:41.982Z,99116.88
2022-12-28T05:58:45.111Z,99123.97
2022-12-28T06:00:46.711Z,99123.34
2022-12-28T06:02:48.375Z,99113.34
2022-12-28T06:04:49.849Z,99111.50
2022-12-28T06:06:51.438Z,99112.31
2022-12-28T06:08:52.957Z,99114.81
2022-12-28T06:10:54.500Z,99097.53
2022-12-28T06:12:55.954Z,99099.19
2022-12-28T06:14:57.492Z,99093.59
2022-12-28T06:16:59.123Z,99088.97
2022-12-28T06:19:08.291Z,99095.22
2022-12-28T06:21:15.998Z,99086.91
2022-12-28T06:23:17.580Z,99086.91
2022-12-28T06:25:19.038Z,99092.09
2022-12-28T06:27:20.507Z,99086.69
2022-12-28T06:29:21.979Z,99090.25
2022-12-28T06:31:26.613Z,99083.75
2022-12-28T06:33:28.154Z,99088.38
2022-12-28T06:35:29.665Z,99083.56
2022-12-28T06:37:31.124Z,99086.28
2022-12-28T06:39:32.596Z,99084.81
2022-12-28T06:41:34.283Z,99083.97
2022-12-28T06:43:37.716Z,99080.22
2022-12-28T06:45:39.218Z,99077.50
2022-12-28T06:47:40.826Z,99074.81
2022-12-28T06:49:42.278Z,99066.47
2022-12-28T06:51:43.872Z,99072.72
2022-12-28T06:53:46.820Z,99059.19
2022-12-28T06:56:03.700Z,99061.69
2022-12-28T06:58:05.281Z,99050.63
2022-12-28T07:00:07.500Z,99056.66
2022-12-28T07:02:10.248Z,99049.19
2022-12-28T07:04:12.198Z,99042.94
2022-12-28T07:06:16.040Z,99041.69
2022-12-28T07:08:18.591Z,99029.78
2022-12-28T07:10:20.083Z,99024.38
2022-12-28T07:12:21.797Z,99021.47
2022-12-28T07:14:23.697Z,99019.38
2022-12-28T07:18:29.821Z,99011.03
2022-12-28T07:20:35.487Z,99016.25
2022-12-28T07:22:41.750Z,99005.19
2022-12-28T07:24:43.311Z,99014.16
2022-12-28T07:26:44.993Z,99013.91
2022-12-28T07:28:47.944Z,99004.75
2022-12-28T07:30:49.383Z,99001.81
2022-12-28T07:32:50.945Z,99001.81
2022-12-28T07:34:52.522Z,99010.59
2022-12-28T07:36:54.134Z,99008.69
2022-12-28T07:38:56.164Z,99001.41
2022-12-28T07:41:06.447Z,99009.31
2022-12-28T07:43:08.021Z,99010.97
2022-12-28T07:45:12.644Z,99014.28
2022-12-28T07:47:16.078Z,99020.97
2022-12-28T07:49:17.566Z,99016.16
2022-12-28T07:51:22.610Z,99017.00
2022-12-28T07:53:24.185Z,99014.06
2022-12-28T07:55:29.689Z,99009.25
2022-12-28T07:57:31.227Z,99018.00
2022-12-28T07:59:32.791Z,99010.25
2022-12-28T08:01:36.767Z,99010.06
2022-12-28T08:03:39.444Z,99005.25
2022-12-28T08:05:40.979Z,99004.84
2022-12-28T08:07:42.487Z,99002.72
2022-12-28T08:09:44.033Z,99000.63
2022-12-28T08:11:46.061Z,98994.19
2022-12-28T08:13:49.787Z,98997.25
2022-12-28T08:15:57.310Z,98998.72
2022-12-28T08:17:58.935Z,99001.22
2022-12-28T08:20:00.484Z,99003.69
2022-12-28T08:22:02.059Z,99000.16
2022-12-28T08:24:05.108Z,99007.25
2022-12-28T08:26:12.994Z,99005.38
2022-12-28T08:28:14.639Z,99006.59
2022-12-28T08:30:16.310Z,99005.09
2022-12-28T08:32:17.873Z,98998.63
2022-12-28T08:34:27.106Z,99000.91
2022-12-28T08:36:29.675Z,98994.00
2022-12-28T08:38:31.527Z,99004.41
2022-12-28T08:40:33.053Z,98998.53
2022-12-28T08:42:34.594Z,98997.28
2022-12-28T08:44:36.172Z,98996.00
2022-12-28T08:46:38.173Z,98996.19
2022-12-28T08:48:40.060Z,98991.97
2022-12-28T08:50:41.737Z,98991.53
2022-12-28T08:52:43.364Z,98991.69
2022-12-28T08:54:44.935Z,98971.44
2022-12-28T08:56:47.003Z,98974.56
2022-12-28T08:58:49.201Z,98977.44
2022-12-28T09:00:50.796Z,98984.31
2022-12-28T09:02:52.593Z,98972.97
2022-12-28T09:04:54.189Z,98977.13
2022-12-28T09:06:55.818Z,98975.66
2022-12-28T09:09:06.973Z,98981.25
2022-12-28T09:11:13.182Z,98972.66
2022-12-28T09:13:14.649Z,98968.66
2022-12-28T09:15:16.224Z,98957.38
2022-12-28T09:17:17.837Z,98960.44
2022-12-28T09:19:21.077Z,98959.16
2022-12-28T09:21:23.865Z,98957.91
2022-12-28T09:23:25.403Z,98965.34
2022-12-28T09:25:27.013Z,98957.84
2022-12-28T09:27:28.895Z,98951.72
2022-12-28T09:29:30.519Z,98971.94
2022-12-28T09:31:35.802Z,98963.94
2022-12-28T09:36:19.129Z,98957.63
2022-12-28T09:38:20.836Z,98957.19
2022-12-28T09:40:22.478Z,98956.94
2022-12-28T09:42:28.788Z,98956.28
2022-12-28T09:45:05.215Z,98960.22
2022-12-28T09:47:28.690Z,98956.59
2022-12-28T09:50:03.866Z,98950.69
2022-12-28T09:52:14.198Z,98947.53
2022-12-28T09:54:15.840Z,98948.72
2022-12-28T09:56:37.210Z,98941.41
2022-12-28T09:58:46.443Z,98945.09
2022-12-28T10:01:01.738Z,98942.53
2022-12-28T10:03:11.001Z,98948.09
2022-12-28T10:05:12.666Z,98933.25
2022-12-28T10:07:14.205Z,98933.13
2022-12-28T10:09:30.027Z,98928.66
2022-12-28T10:11:39.950Z,98924.22
2022-12-28T10:13:57.150Z,98918.66
2022-12-28T10:15:58.935Z,98919.63
2022-12-28T10:18:00.547Z,98917.03
2022-12-28T10:20:02.136Z,98913.41
2022-12-28T10:25:59.761Z,98908.69
2022-12-28T10:28:06.212Z,98900.66
2022-12-28T10:30:16.284Z,98907.66
2022-12-28T10:32:19.146Z,98895.25
2022-12-28T10:34:22.574Z,98902.44
2022-12-28T10:36:31.368Z,98897.13
2022-12-28T10:38:34.610Z,98895.94
2022-12-28T10:40:39.547Z,98895.00
2022-12-28T10:42:43.958Z,98892.66
2022-12-28T10:44:49.784Z,98887.06
2022-12-28T10:46:57.744Z,98893.47
2022-12-28T10:49:02.558Z,98886.25
2022-12-28T10:51:16.848Z,98885.53
2022-12-28T10:53:32.808Z,98883.75
2022-12-28T10:55:34.652Z,98876.50
2022-12-28T10:57:37.992Z,98870.13
2022-12-28T10:59:40.681Z,98864.78
2022-12-28T11:01:43.570Z,98861.59
2022-12-28T11:03:57.183Z,98856.25
2022-12-28T11:06:21.255Z,98852.56
2022-12-28T11:08:27.911Z,98846.84
2022-12-28T11:10:30.658Z,98844.50
2022-12-28T11:12:34.557Z,98845.91
2022-12-28T11:14:37.708Z,98846.78
2022-12-28T11:16:40.684Z,98838.97
2022-12-28T11:18:42.491Z,98838.25
2022-12-28T11:20:54.088Z,98840.47
2022-12-28T11:22:55.756Z,98838.91
2022-12-28T11:25:00.407Z,98830.03
2022-12-28T11:27:03.386Z,98828.72
2022-12-28T11:29:05.203Z,98828.81
2022-12-28T11:31:09.535Z,98824.75
2022-12-28T11:33:39.516Z,98815.84
2022-12-28T11:35:44.984Z,98816.97
2022-12-28T11:37:58.111Z,98811.03
2022-12-28T11:40:01.679Z,98809.47
2022-12-28T11:42:37.394Z,98805.41
2022-12-28T11:44:32.736Z,98803.03
2022-12-28T11:46:42.547Z,98793.03
2022-12-28T11:48:44.143Z,98790.63
2022-12-28T11:50:52.839Z,98801.03
2022-12-28T11:52:54.606Z,98788.56
2022-12-28T11:55:28.922Z,98786.41
2022-12-28T11:57:43.894Z,98784.25
2022-12-28T11:59:45.410Z,98782.44
2022-12-28T12:01:48.642Z,98770.78
2022-12-28T12:03:58.975Z,98773.84
2022-12-28T12:06:00.571Z,98768.47
2022-12-28T12:08:22.515Z,98762.47
2022-12-28T12:10:34.139Z,98765.53
2022-12-28T12:12:37.704Z,98761.56
2022-12-28T12:14:51.916Z,98758.63
2022-12-28T12:17:03.996Z,98747.28
2022-12-28T12:19:09.067Z,98756.41
2022-12-28T12:21:26.945Z,98743.63
2022-12-28T12:23:39.119Z,98742.63
2022-12-28T12:25:43.869Z,98741.59
2022-12-28T12:27:53.746Z,98735.97
2022-12-28T12:30:07.655Z,98734.91
2022-12-28T12:32:25.880Z,98733.56
2022-12-28T12:34:42.740Z,98735.88
2022-12-28T12:37:11.646Z,98736.47
2022-12-28T12:39:31.777Z,98724.53
2022-12-28T12:41:49.369Z,98724.06
2022-12-28T12:44:02.692Z,98723.28
2022-12-28T12:50:36.854Z,98715.44
2022-12-28T12:53:06.255Z,98720.94
2022-12-28T12:55:16.715Z,98713.34
2022-12-28T12:57:25.688Z,98704.84
2022-12-28T12:59:50.610Z,98701.09
2022-12-28T13:02:29.903Z,98703.88
2022-12-28T13:04:35.346Z,98700.88
2022-12-28T13:06:39.520Z,98702.81
2022-12-28T13:08:48.234Z,98705.31
2022-12-28T13:10:51.230Z,98697.66
2022-12-28T13:12:57.919Z,98702.59
2022-12-28T13:15:03.844Z,98691.13
2022-12-28T13:17:20.826Z,98690.03
2022-12-28T13:19:28.419Z,98681.56
2022-12-28T13:21:41.162Z,98680.22
2022-12-28T13:23:45.222Z,98682.94
2022-12-28T13:25:51.442Z,98677.47
2022-12-28T13:27:56.548Z,98678.59
2022-12-28T13:29:58.616Z,98675.00
2022-12-28T13:32:00.377Z,98676.09
2022-12-28T13:34:15.080Z,98673.91
2022-12-28T13:36:20.517Z,98677.72
2022-12-28T13:38:22.126Z,98680.72
2022-12-28T13:40:24.515Z,98675.25
2022-12-28T13:42:35.521Z,98680.41
2022-12-28T13:44:48.080Z,98680.41
2022-12-28T13:46:56.915Z,98682.59
2022-12-28T13:48:59.483Z,98680.09
2022-12-28T13:51:01.396Z,98679.31
2022-12-28T13:53:07.834Z,98675.72
2022-12-28T13:55:20.369Z,98663.66
2022-12-28T13:57:50.318Z,98664.47
2022-12-28T13:59:57.584Z,98666.09
2022-12-28T14:01:59.528Z,98666.63
2022-12-28T14:04:42.257Z,98665.78
2022-12-28T14:06:27.673Z,98661.66
2022-12-28T14:08:33.863Z,98654.28
2022-12-28T14:10:36.234Z,98660.84
2022-12-28T14:12:41.531Z,98658.88
2022-12-28T14:14:45.114Z,98660.56
2022-12-28T14:17:12.421Z,98656.66
2022-12-28T14:19:14.206Z,98663.25
2022-12-28T14:21:31.487Z,98659.41
2022-12-28T14:23:40.434Z,98658.84
2022-12-28T14:25:43.098Z,98663.50
2022-12-28T14:27:57.251Z,98663.50
2022-12-28T14:29:59.385Z,98664.03
2022-12-28T14:32:04.209Z,98659.13
2022-12-28T14:34:19.769Z,98658.56
2022-12-28T14:36:26.395Z,98659.06
2022-12-28T14:38:47.277Z,98653.84
2022-12-28T14:40:54.570Z,98650.88
2022-12-28T14:43:19.063Z,98649.50
2022-12-28T14:46:07.072Z,98648.09
2022-12-28T14:48:24.168Z,98651.91
2022-12-28T14:50:31.881Z,98649.16
2022-12-28T14:52:40.747Z,98641.25
2022-12-28T14:54:47.681Z,98641.50
2022-12-28T14:57:18.209Z,98638.19
2022-12-28T14:59:26.878Z,98630.00
2022-12-28T15:01:46.290Z,98638.47
2022-12-28T15:03:53.750Z,98634.91
2022-12-28T15:06:01.302Z,98633.50
2022-12-28T15:08:03.059Z,98637.63
2022-12-28T15:10:05.693Z,98629.94
2022-12-28T15:12:13.313Z,98623.66
2022-12-28T15:14:19.324Z,98629.13
2022-12-28T15:16:23.328Z,98622.84
2022-12-28T15:18:25.861Z,98630.47
2022-12-28T15:20:30.361Z,98623.38
2022-12-28T15:22:34.631Z,98624.44
2022-12-28T15:24:36.232Z,98625.53
2022-12-28T15:26:37.853Z,98618.41
2022-12-28T15:28:43.260Z,98621.41
2022-12-28T15:30:47.664Z,98626.06
2022-12-28T15:32:49.283Z,98616.19
2022-12-28T15:34:53.609Z,98615.13
2022-12-28T15:36:55.365Z,98611.84
2022-12-28T15:38:57.237Z,98618.09
2022-12-28T15:41:01.156Z,98613.97
2022-12-28T15:43:02.813Z,98621.63
2022-12-28T15:45:05.174Z,98612.84
2022-12-28T15:47:07.065Z,98612.84
2022-12-28T15:49:12.214Z,98603.00
2022-12-28T15:51:14.336Z,98603.28
2022-12-28T15:53:17.489Z,98602.72
2022-12-28T15:55:18.892Z,98590.13
2022-12-28T15:57:20.584Z,98594.19
2022-12-28T15:59:22.361Z,98593.38
2022-12-28T16:01:25.945Z,98594.19
2022-12-28T16:03:27.903Z,98598.84
2022-12-28T16:05:29.322Z,98598.28
2022-12-28T16:07:30.809Z,98590.06
2022-12-28T16:09:32.641Z,98592.81
2022-12-28T16:11:34.159Z,98595.53
2022-12-28T16:13:38.541Z,98594.16
2022-12-28T16:15:40.070Z,98593.59
2022-12-28T16:17:51.331Z,98595.75
2022-12-28T16:19:56.826Z,98595.75
2022-12-28T16:21:58.590Z,98600.41
2022-12-28T16:24:01.283Z,98596.84
2022-12-28T16:26:03.105Z,98597.94
2022-12-28T16:28:04.853Z,98602.56
2022-12-28T16:30:07.048Z,98596.28
2022-12-28T16:32:16.160Z,98582.06
2022-12-28T16:34:21.106Z,98591.09
2022-12-28T16:36:23.466Z,98585.84
2022-12-28T16:38:28.031Z,98583.41
2022-12-28T16:40:29.757Z,98589.69
2022-12-28T16:42:37.735Z,98581.75
2022-12-28T16:44:39.698Z,98581.44
2022-12-28T16:46:42.466Z,98575.44
2022-12-28T16:48:46.989Z,98577.63
2022-12-28T16:50:59.436Z,98575.16
2022-12-28T16:53:05.407Z,98575.16
2022-12-28T16:55:09.742Z,98577.06
2022-12-28T16:57:11.444Z,98568.53
2022-12-28T16:59:15.807Z,98575.94
2022-12-28T17:01:18.612Z,98573.44
2022-12-28T17:03:20.263Z,98567.16
2022-12-28T17:05:22.234Z,98568.25
2022-12-28T17:07:23.890Z,98568.47
2022-12-28T17:09:27.607Z,98574.19
2022-12-28T17:11:29.021Z,98571.72
2022-12-28T17:13:34.033Z,98573.06
2022-12-28T17:15:38.947Z,98570.34
2022-12-28T17:17:40.412Z,98581.50
2022-12-28T17:19:42.121Z,98575.47
2022-12-28T17:21:47.514Z,98572.75
2022-12-28T17:23:48.939Z,98565.91
2022-12-28T17:25:54.396Z,98566.97
2022-12-28T17:27:58.216Z,98562.00
2022-12-28T17:30:00.236Z,98566.91
2022-12-28T17:32:01.822Z,98556.25
2022-12-28T17:34:03.790Z,98558.44
2022-12-28T17:36:05.697Z,98560.56
2022-12-28T17:38:10.477Z,98557.28
2022-12-28T17:40:13.031Z,98552.91
2022-12-28T17:42:17.285Z,98548.78
2022-12-28T17:44:18.792Z,98559.72
2022-12-28T17:46:21.400Z,98563.78
2022-12-28T17:48:27.771Z,98551.47
2022-12-28T17:50:29.376Z,98549.25
2022-12-28T17:52:30.883Z,98543.22
2022-12-28T17:54:32.881Z,98542.63
2022-12-28T17:56:37.527Z,98534.72
2022-12-28T17:58:43.917Z,98534.72
2022-12-28T18:00:45.511Z,98528.44
2022-12-28T18:02:47.253Z,98529.19
2022-12-28T18:04:49.101Z,98522.91
2022-12-28T18:06:50.506Z,98512.00
2022-12-28T18:08:52.215Z,98510.03
2022-12-28T18:10:54.034Z,98514.66
2022-12-28T18:12:55.625Z,98514.09
2022-12-28T18:14:57.272Z,98499.63
2022-12-28T18:16:58.904Z,98493.91
2022-12-28T18:19:00.731Z,98489.50
2022-12-28T18:21:05.379Z,98489.78
2022-12-28T18:23:07.016Z,98488.38
2022-12-28T18:25:09.257Z,98486.72
2022-12-28T18:27:11.089Z,98492.69
2022-12-28T18:29:13.035Z,98491.28
2022-12-28T18:31:14.966Z,98487.72
2022-12-28T18:33:16.745Z,98484.44
2022-12-28T18:35:18.713Z,98481.97
2022-12-28T18:37:27.365Z,98487.09
2022-12-28T18:39:31.792Z,98487.38
2022-12-28T18:41:40.886Z,98488.44
2022-12-28T18:43:48.707Z,98473.19
2022-12-28T18:45:55.696Z,98472.59
2022-12-28T18:47:57.354Z,98462.50
2022-12-28T18:49:59.049Z,98465.22
2022-12-28T18:52:04.083Z,98462.22
2022-12-28T18:54:05.848Z,98460.81
2022-12-28T18:56:13.370Z,98451.81
2022-12-28T18:58:15.721Z,98456.94
2022-12-28T19:00:20.207Z,98452.56
2022-12-28T19:02:21.863Z,98447.38
2022-12-28T19:04:23.755Z,98446.78
2022-12-28T19:06:26.136Z,98448.69
2022-12-28T19:08:28.183Z,98441.63
2022-12-28T19:10:30.311Z,98444.34
2022-12-28T19:12:32.082Z,98447.31
2022-12-28T19:14:33.752Z,98441.28
2022-12-28T19:16:35.560Z,98447.56
2022-12-28T19:18:39.942Z,98451.34
2022-12-28T19:20:43.833Z,98434.44
2022-12-28T19:22:47.346Z,98437.16
2022-12-28T19:24:48.987Z,98439.31
2022-12-28T19:26:53.875Z,98429.25
2022-12-28T19:28:55.796Z,98438.75
2022-12-28T19:31:04.430Z,98433.56
2022-12-28T19:33:06.924Z,98424.81
2022-12-28T19:35:08.868Z,98431.09
2022-12-28T19:37:13.459Z,98443.06
2022-12-28T19:39:15.201Z,98438.69
2022-12-28T19:41:16.958Z,98431.59
2022-12-28T19:43:18.683Z,98426.13
2022-12-28T19:45:20.422Z,98432.41
2022-12-28T19:47:21.992Z,98427.47
2022-12-28T19:49:23.821Z,98427.19
2022-12-28T19:51:31.306Z,98417.91
2022-12-28T19:53:35.592Z,98407.00
2022-12-28T19:55:40.684Z,98407.84
2022-12-28T19:57:42.216Z,98410.00
2022-12-28T19:59:43.834Z,98422.22
2022-12-28T20:01:45.559Z,98412.94
2022-12-28T20:03:47.567Z,98413.72
2022-12-28T20:05:52.054Z,98419.44
2022-12-28T20:07:56.692Z,98409.59
2022-12-28T20:10:00.893Z,98405.22
2022-12-28T20:12:02.442Z,98395.97
2022-12-28T20:14:04.622Z,98390.53
2022-12-28T20:16:06.699Z,98390.53
2022-12-28T20:18:08.397Z,98389.41
2022-12-28T20:20:10.148Z,98390.19
2022-12-28T20:22:11.838Z,98371.72
2022-12-28T20:24:13.462Z,98377.69
2022-12-28T20:26:18.781Z,98365.13
2022-12-28T20:28:21.622Z,98362.66
2022-12-28T20:30:23.169Z,98362.66
2022-12-28T20:32:24.796Z,98361.00
2022-12-28T20:34:27.375Z,98365.63
2022-12-28T20:36:31.929Z,98363.16
2022-12-28T20:38:34.521Z,98359.59
2022-12-28T20:40:36.857Z,98358.78
2022-12-28T20:42:59.092Z,98360.13
2022-12-28T20:45:00.679Z,98357.88
2022-12-28T20:47:02.733Z,98365.25
2022-12-28T20:49:05.486Z,98336.88
2022-12-28T20:51:06.961Z,98351.03
2022-12-28T20:53:15.186Z,98341.25
2022-12-28T20:55:22.699Z,98337.97
2022-12-28T20:57:24.372Z,98328.69
2022-12-28T20:59:26.372Z,98339.59
2022-12-28T21:01:28.172Z,98334.13
2022-12-28T21:03:29.939Z,98326.25
2022-12-28T21:05:34.632Z,98328.38
2022-12-28T21:07:36.234Z,98334.63
2022-12-28T21:09:37.837Z,98323.16
2022-12-28T21:11:39.610Z,98326.72
2022-12-28T21:13:44.961Z,98331.81
2022-12-28T21:15:48.100Z,98323.66
2022-12-28T21:17:49.882Z,98319.81
2022-12-28T21:19:51.657Z,98318.16
2022-12-28T21:21:53.504Z,98314.03
2022-12-28T21:23:55.087Z,98312.63
2022-12-28T21:26:02.865Z,98315.63
2022-12-28T21:28:07.768Z,98323.78
2022-12-28T21:30:09.952Z,98312.06
2022-12-28T21:32:11.727Z,98307.13
2022-12-28T21:34:15.837Z,98314.72
2022-12-28T21:36:19.400Z,98302.22
2022-12-28T21:38:20.936Z,98296.44
2022-12-28T21:40:22.491Z,98298.59
2022-12-28T21:42:27.712Z,98301.56
2022-12-28T21:44:29.197Z,98300.22
2022-12-28T21:46:30.808Z,98284.72
2022-12-28T21:48:34.045Z,98291.50
2022-12-28T21:50:35.758Z,98292.81
2022-12-28T21:52:38.241Z,98292.53
2022-12-28T21:54:39.714Z,98293.31
2022-12-28T21:56:43.062Z,98286.53
2022-12-28T21:58:47.987Z,98282.44
2022-12-28T22:01:08.611Z,98275.84
2022-12-28T22:03:30.698Z,98274.72
2022-12-28T22:05:47.567Z,98270.91
2022-12-28T22:08:10.234Z,98278.84
2022-12-28T22:10:31.151Z,98270.34
2022-12-28T22:12:37.411Z,98270.91
2022-12-28T22:14:39.099Z,98269.78
2022-12-28T22:16:40.832Z,98268.47
2022-12-28T22:21:05.074Z,98260.84
2022-12-28T22:23:08.973Z,98265.81
2022-12-28T22:25:12.218Z,98266.63
2022-12-28T22:27:14.018Z,98255.75
2022-12-28T22:29:16.792Z,98254.66
2022-12-28T22:31:18.353Z,98258.19
2022-12-28T22:33:19.951Z,98253.59
2022-12-28T22:35:22.317Z,98253.59
2022-12-28T22:37:23.808Z,98250.59
2022-12-28T22:39:25.679Z,98245.97
2022-12-28T22:41:30.301Z,98242.19
2022-12-28T22:43:32.211Z,98242.19
2022-12-28T22:45:33.994Z,98252.25
2022-12-28T22:47:35.662Z,98247.66
2022-12-28T22:49:37.339Z,98246.81
2022-12-28T22:51:38.808Z,98255.03
2022-12-28T22:53:40.857Z,98243.06
2022-12-28T22:55:42.474Z,98244.16
2022-12-28T22:57:44.375Z,98248.28
2022-12-28T22:59:48.329Z,98230.03
2022-12-28T23:01:49.941Z,98241.16
2022-12-28T23:03:51.692Z,98241.22
2022-12-28T23:05:53.294Z,98236.88
2022-12-28T23:07:54.824Z,98222.44
2022-12-28T23:10:01.819Z,98224.31
2022-12-28T23:12:06.691Z,98230.59
2022-12-28T23:14:42.643Z,98242.88
2022-12-28T23:16:44.928Z,98219.44
2022-12-28T23:19:05.423Z,98211.28
2022-12-28T23:21:28.627Z,98220.34
2022-12-28T23:23:48.996Z,98224.94
2022-12-28T23:26:09.290Z,98219.50
2022-12-28T23:28:14.221Z,98209.72
2022-12-28T23:30:21.054Z,98206.16
2022-12-28T23:32:22.587Z,98203.44
2022-12-28T23:34:24.261Z,98205.34
2022-12-28T23:36:25.900Z,98195.28
2022-12-28T23:38:27.391Z,98197.72
2022-12-28T23:40:29.030Z,98202.66
2022-12-28T23:42:30.521Z,98197.78
2022-12-28T23:44:32.007Z,98192.09
2022-12-28T23:46:33.783Z,98208.16
2022-12-28T23:48:35.329Z,98197.84
2022-12-28T23:50:38.970Z,98192.16
2022-12-28T23:52:41.362Z,98192.19
2022-12-28T23:54:42.967Z,98193.03
2022-12-28T23:56:45.377Z,98192.19
2022-12-28T23:58:49.597Z,98196.59
